sensor_id;sensor_type;location;lat;lon;timestamp;P1;durP1;ratioP1;P2;durP2;ratioP2
71600;SDS011;59446;52.192;4.628;2022-08-19T00:01:31;4.45;;;2.08;;
71600;SDS011;59446;52.192;4.628;2022-08-19T00:03:59;6.33;;;1.73;;
71600;SDS011;59446;52.192;4.628;2022-08-19T00:06:27;4.13;;;1.67;;
71600;SDS011;59446;52.192;4.628;2022-08-19T00:08:53;4.53;;;1.98;;
71600;SDS011;59446;52.192;4.628;2022-08-19T00:11:20;4.43;;;1.60;;
71600;SDS011;59446;52.192;4.628;2022-08-19T00:13:46;3.95;;;1.80;;
71600;SDS011;59446;52.192;4.628;2022-08-19T00:16:13;6.00;;;1.98;;
71600;SDS011;59446;52.192;4.628;2022-08-19T00:18:39;3.13;;;1.47;;
71600;SDS011;59446;52.192;4.628;2022-08-19T00:21:04;6.07;;;2.20;;
71600;SDS011;59446;52.192;4.628;2022-08-19T00:23:32;3.93;;;1.43;;
71600;SDS011;59446;52.192;4.628;2022-08-19T00:25:59;6.28;;;2.30;;
71600;SDS011;59446;52.192;4.628;2022-08-19T00:28:25;6.20;;;2.10;;
71600;SDS011;59446;52.192;4.628;2022-08-19T00:30:50;5.07;;;1.93;;
71600;SDS011;59446;52.192;4.628;2022-08-19T00:33:18;5.68;;;2.38;;
71600;SDS011;59446;52.192;4.628;2022-08-19T00:35:43;3.90;;;1.75;;
71600;SDS011;59446;52.192;4.628;2022-08-19T00:38:09;4.80;;;1.87;;
71600;SDS011;59446;52.192;4.628;2022-08-19T00:40:34;3.73;;;1.87;;
71600;SDS011;59446;52.192;4.628;2022-08-19T00:42:59;3.93;;;2.00;;
71600;SDS011;59446;52.192;4.628;2022-08-19T00:45:26;5.97;;;2.10;;
71600;SDS011;59446;52.192;4.628;2022-08-19T00:47:53;3.83;;;1.60;;
71600;SDS011;59446;52.192;4.628;2022-08-19T00:50:18;5.77;;;1.93;;
71600;SDS011;59446;52.192;4.628;2022-08-19T00:52:47;4.93;;;1.80;;
71600;SDS011;59446;52.192;4.628;2022-08-19T00:55:16;3.50;;;1.77;;
71600;SDS011;59446;52.192;4.628;2022-08-19T00:57:47;3.75;;;2.00;;
71600;SDS011;59446;52.192;4.628;2022-08-19T01:00:17;4.77;;;1.67;;
71600;SDS011;59446;52.192;4.628;2022-08-19T01:02:43;4.28;;;1.95;;
71600;SDS011;59446;52.192;4.628;2022-08-19T01:05:10;3.60;;;1.80;;
71600;SDS011;59446;52.192;4.628;2022-08-19T01:07:40;5.25;;;2.00;;
71600;SDS011;59446;52.192;4.628;2022-08-19T01:10:08;2.60;;;1.42;;
71600;SDS011;59446;52.192;4.628;2022-08-19T01:12:36;3.73;;;1.83;;
71600;SDS011;59446;52.192;4.628;2022-08-19T01:15:03;4.22;;;1.70;;
71600;SDS011;59446;52.192;4.628;2022-08-19T01:17:30;2.88;;;1.35;;
71600;SDS011;59446;52.192;4.628;2022-08-19T01:19:56;4.53;;;1.73;;
71600;SDS011;59446;52.192;4.628;2022-08-19T01:22:30;3.88;;;1.60;;
71600;SDS011;59446;52.192;4.628;2022-08-19T01:25:00;5.30;;;2.30;;
71600;SDS011;59446;52.192;4.628;2022-08-19T01:27:25;5.35;;;2.05;;
71600;SDS011;59446;52.192;4.628;2022-08-19T01:29:51;4.90;;;2.03;;
71600;SDS011;59446;52.192;4.628;2022-08-19T01:32:17;4.18;;;1.77;;
71600;SDS011;59446;52.192;4.628;2022-08-19T01:34:44;4.53;;;1.80;;
71600;SDS011;59446;52.192;4.628;2022-08-19T01:37:12;4.65;;;1.80;;
71600;SDS011;59446;52.192;4.628;2022-08-19T01:39:39;4.80;;;2.00;;
71600;SDS011;59446;52.192;4.628;2022-08-19T01:42:06;4.57;;;2.00;;
71600;SDS011;59446;52.192;4.628;2022-08-19T01:44:34;5.15;;;1.90;;
71600;SDS011;59446;52.192;4.628;2022-08-19T01:47:01;4.18;;;2.00;;
71600;SDS011;59446;52.192;4.628;2022-08-19T01:49:28;3.33;;;1.60;;
71600;SDS011;59446;52.192;4.628;2022-08-19T01:51:53;5.20;;;1.90;;
71600;SDS011;59446;52.192;4.628;2022-08-19T01:54:20;5.03;;;1.77;;
71600;SDS011;59446;52.192;4.628;2022-08-19T01:56:46;3.38;;;1.65;;
71600;SDS011;59446;52.192;4.628;2022-08-19T01:59:13;4.70;;;1.97;;
71600;SDS011;59446;52.192;4.628;2022-08-19T02:01:41;5.22;;;1.85;;
71600;SDS011;59446;52.192;4.628;2022-08-19T02:04:06;4.00;;;1.90;;
71600;SDS011;59446;52.192;4.628;2022-08-19T02:06:33;4.18;;;1.85;;
71600;SDS011;59446;52.192;4.628;2022-08-19T02:08:58;5.33;;;2.60;;
71600;SDS011;59446;52.192;4.628;2022-08-19T02:11:26;4.43;;;1.85;;
71600;SDS011;59446;52.192;4.628;2022-08-19T02:13:53;3.97;;;1.77;;
71600;SDS011;59446;52.192;4.628;2022-08-19T02:16:19;4.20;;;1.67;;
71600;SDS011;59446;52.192;4.628;2022-08-19T02:18:45;4.30;;;1.40;;
71600;SDS011;59446;52.192;4.628;2022-08-19T02:21:13;5.93;;;2.22;;
71600;SDS011;59446;52.192;4.628;2022-08-19T02:23:43;5.53;;;2.22;;
71600;SDS011;59446;52.192;4.628;2022-08-19T02:26:09;5.47;;;2.03;;
71600;SDS011;59446;52.192;4.628;2022-08-19T02:28:34;3.10;;;1.67;;
71600;SDS011;59446;52.192;4.628;2022-08-19T02:31:01;4.85;;;1.85;;
71600;SDS011;59446;52.192;4.628;2022-08-19T02:33:27;4.07;;;1.80;;
71600;SDS011;59446;52.192;4.628;2022-08-19T02:35:54;6.90;;;2.20;;
71600;SDS011;59446;52.192;4.628;2022-08-19T02:38:19;5.07;;;1.83;;
71600;SDS011;59446;52.192;4.628;2022-08-19T02:40:58;5.20;;;1.90;;
71600;SDS011;59446;52.192;4.628;2022-08-19T02:43:25;4.55;;;2.00;;
71600;SDS011;59446;52.192;4.628;2022-08-19T02:45:52;5.18;;;2.15;;
71600;SDS011;59446;52.192;4.628;2022-08-19T02:48:19;4.77;;;1.77;;
71600;SDS011;59446;52.192;4.628;2022-08-19T02:50:46;4.60;;;2.13;;
71600;SDS011;59446;52.192;4.628;2022-08-19T02:53:13;5.25;;;2.40;;
71600;SDS011;59446;52.192;4.628;2022-08-19T02:55:42;4.07;;;1.70;;
71600;SDS011;59446;52.192;4.628;2022-08-19T02:58:09;5.00;;;2.25;;
71600;SDS011;59446;52.192;4.628;2022-08-19T03:00:35;5.83;;;2.33;;
71600;SDS011;59446;52.192;4.628;2022-08-19T03:03:00;4.60;;;2.30;;
71600;SDS011;59446;52.192;4.628;2022-08-19T03:05:26;4.50;;;2.13;;
71600;SDS011;59446;52.192;4.628;2022-08-19T03:07:52;4.28;;;2.17;;
71600;SDS011;59446;52.192;4.628;2022-08-19T03:10:18;5.28;;;2.20;;
71600;SDS011;59446;52.192;4.628;2022-08-19T03:12:43;4.87;;;2.37;;
71600;SDS011;59446;52.192;4.628;2022-08-19T03:15:10;5.68;;;2.50;;
71600;SDS011;59446;52.192;4.628;2022-08-19T03:17:35;5.67;;;2.90;;
71600;SDS011;59446;52.192;4.628;2022-08-19T03:20:02;4.13;;;2.10;;
71600;SDS011;59446;52.192;4.628;2022-08-19T03:22:28;6.10;;;2.80;;
71600;SDS011;59446;52.192;4.628;2022-08-19T03:24:54;5.00;;;2.17;;
71600;SDS011;59446;52.192;4.628;2022-08-19T03:27:20;5.43;;;2.57;;
71600;SDS011;59446;52.192;4.628;2022-08-19T03:29:46;6.60;;;2.47;;
71600;SDS011;59446;52.192;4.628;2022-08-19T03:32:11;4.70;;;2.30;;
71600;SDS011;59446;52.192;4.628;2022-08-19T03:34:37;5.82;;;2.40;;
71600;SDS011;59446;52.192;4.628;2022-08-19T03:37:07;4.90;;;2.20;;
71600;SDS011;59446;52.192;4.628;2022-08-19T03:39:35;5.20;;;2.38;;
71600;SDS011;59446;52.192;4.628;2022-08-19T03:42:02;5.05;;;2.03;;
71600;SDS011;59446;52.192;4.628;2022-08-19T03:44:28;6.67;;;2.77;;
71600;SDS011;59446;52.192;4.628;2022-08-19T03:46:55;7.07;;;2.50;;
71600;SDS011;59446;52.192;4.628;2022-08-19T03:49:23;5.28;;;2.38;;
71600;SDS011;59446;52.192;4.628;2022-08-19T03:51:50;5.57;;;2.40;;
71600;SDS011;59446;52.192;4.628;2022-08-19T03:54:17;7.35;;;2.42;;
71600;SDS011;59446;52.192;4.628;2022-08-19T03:56:44;7.17;;;2.60;;
71600;SDS011;59446;52.192;4.628;2022-08-19T03:59:12;4.65;;;2.10;;
71600;SDS011;59446;52.192;4.628;2022-08-19T04:01:41;5.95;;;2.60;;
71600;SDS011;59446;52.192;4.628;2022-08-19T04:04:07;6.13;;;2.70;;
71600;SDS011;59446;52.192;4.628;2022-08-19T04:06:33;5.80;;;2.95;;
71600;SDS011;59446;52.192;4.628;2022-08-19T04:09:02;6.55;;;2.70;;
71600;SDS011;59446;52.192;4.628;2022-08-19T04:11:42;5.43;;;2.20;;
71600;SDS011;59446;52.192;4.628;2022-08-19T04:14:11;6.35;;;2.92;;
71600;SDS011;59446;52.192;4.628;2022-08-19T04:16:39;7.05;;;2.65;;
71600;SDS011;59446;52.192;4.628;2022-08-19T04:19:05;5.93;;;2.20;;
71600;SDS011;59446;52.192;4.628;2022-08-19T04:21:31;6.13;;;2.50;;
71600;SDS011;59446;52.192;4.628;2022-08-19T04:23:56;6.83;;;2.63;;
71600;SDS011;59446;52.192;4.628;2022-08-19T04:26:24;5.60;;;2.70;;
71600;SDS011;59446;52.192;4.628;2022-08-19T04:28:51;5.90;;;2.47;;
71600;SDS011;59446;52.192;4.628;2022-08-19T04:31:19;5.57;;;2.80;;
71600;SDS011;59446;52.192;4.628;2022-08-19T04:33:51;5.22;;;2.38;;
71600;SDS011;59446;52.192;4.628;2022-08-19T04:36:20;6.93;;;2.37;;
71600;SDS011;59446;52.192;4.628;2022-08-19T04:38:47;8.43;;;2.78;;
71600;SDS011;59446;52.192;4.628;2022-08-19T04:41:14;5.50;;;2.95;;
71600;SDS011;59446;52.192;4.628;2022-08-19T04:43:58;6.37;;;2.43;;
71600;SDS011;59446;52.192;4.628;2022-08-19T04:46:23;6.87;;;2.80;;
71600;SDS011;59446;52.192;4.628;2022-08-19T04:48:49;4.63;;;2.22;;
71600;SDS011;59446;52.192;4.628;2022-08-19T04:51:14;6.07;;;2.33;;
71600;SDS011;59446;52.192;4.628;2022-08-19T04:53:40;6.40;;;2.70;;
71600;SDS011;59446;52.192;4.628;2022-08-19T04:56:11;5.85;;;2.30;;
71600;SDS011;59446;52.192;4.628;2022-08-19T04:58:39;5.32;;;2.35;;
71600;SDS011;59446;52.192;4.628;2022-08-19T05:01:07;6.75;;;2.78;;
71600;SDS011;59446;52.192;4.628;2022-08-19T05:03:34;5.87;;;2.70;;
71600;SDS011;59446;52.192;4.628;2022-08-19T05:06:06;6.38;;;3.00;;
71600;SDS011;59446;52.192;4.628;2022-08-19T05:08:33;6.10;;;2.47;;
71600;SDS011;59446;52.192;4.628;2022-08-19T05:11:01;6.43;;;2.92;;
71600;SDS011;59446;52.192;4.628;2022-08-19T05:13:33;7.93;;;2.45;;
71600;SDS011;59446;52.192;4.628;2022-08-19T05:15:58;7.27;;;2.80;;
71600;SDS011;59446;52.192;4.628;2022-08-19T05:18:24;7.63;;;2.63;;
71600;SDS011;59446;52.192;4.628;2022-08-19T05:21:10;7.10;;;2.40;;
71600;SDS011;59446;52.192;4.628;2022-08-19T05:23:56;6.25;;;2.55;;
71600;SDS011;59446;52.192;4.628;2022-08-19T05:26:22;7.73;;;2.93;;
71600;SDS011;59446;52.192;4.628;2022-08-19T05:28:50;6.93;;;3.07;;
71600;SDS011;59446;52.192;4.628;2022-08-19T05:31:16;9.32;;;3.35;;
71600;SDS011;59446;52.192;4.628;2022-08-19T05:33:42;7.47;;;3.07;;
71600;SDS011;59446;52.192;4.628;2022-08-19T05:36:07;8.50;;;2.70;;
71600;SDS011;59446;52.192;4.628;2022-08-19T05:38:33;8.43;;;2.83;;
71600;SDS011;59446;52.192;4.628;2022-08-19T05:41:00;7.60;;;3.17;;
71600;SDS011;59446;52.192;4.628;2022-08-19T05:43:25;8.27;;;3.53;;
71600;SDS011;59446;52.192;4.628;2022-08-19T05:45:51;6.37;;;2.90;;
71600;SDS011;59446;52.192;4.628;2022-08-19T05:48:16;7.70;;;3.23;;
71600;SDS011;59446;52.192;4.628;2022-08-19T05:50:45;9.13;;;3.73;;
71600;SDS011;59446;52.192;4.628;2022-08-19T05:53:11;7.85;;;3.33;;
71600;SDS011;59446;52.192;4.628;2022-08-19T05:55:37;8.05;;;3.15;;
71600;SDS011;59446;52.192;4.628;2022-08-19T05:58:03;9.53;;;4.10;;
71600;SDS011;59446;52.192;4.628;2022-08-19T06:00:32;7.47;;;3.33;;
71600;SDS011;59446;52.192;4.628;2022-08-19T06:02:58;6.82;;;3.25;;
71600;SDS011;59446;52.192;4.628;2022-08-19T06:05:27;7.83;;;3.33;;
71600;SDS011;59446;52.192;4.628;2022-08-19T06:07:54;7.68;;;2.97;;
71600;SDS011;59446;52.192;4.628;2022-08-19T06:10:24;6.50;;;2.47;;
71600;SDS011;59446;52.192;4.628;2022-08-19T06:12:51;8.27;;;3.97;;
71600;SDS011;59446;52.192;4.628;2022-08-19T06:15:17;8.45;;;3.38;;
71600;SDS011;59446;52.192;4.628;2022-08-19T06:17:42;8.37;;;3.30;;
71600;SDS011;59446;52.192;4.628;2022-08-19T06:20:12;9.25;;;3.15;;
71600;SDS011;59446;52.192;4.628;2022-08-19T06:22:43;6.90;;;2.88;;
71600;SDS011;59446;52.192;4.628;2022-08-19T06:25:10;7.07;;;3.00;;
71600;SDS011;59446;52.192;4.628;2022-08-19T06:27:37;9.00;;;4.05;;
71600;SDS011;59446;52.192;4.628;2022-08-19T06:30:03;9.20;;;3.50;;
71600;SDS011;59446;52.192;4.628;2022-08-19T06:32:29;6.47;;;3.30;;
71600;SDS011;59446;52.192;4.628;2022-08-19T06:34:55;6.18;;;2.80;;
71600;SDS011;59446;52.192;4.628;2022-08-19T06:37:20;8.20;;;3.57;;
71600;SDS011;59446;52.192;4.628;2022-08-19T06:39:47;7.18;;;3.10;;
71600;SDS011;59446;52.192;4.628;2022-08-19T06:42:13;8.20;;;3.10;;
71600;SDS011;59446;52.192;4.628;2022-08-19T06:44:41;7.88;;;3.20;;
71600;SDS011;59446;52.192;4.628;2022-08-19T06:47:08;7.05;;;3.13;;
71600;SDS011;59446;52.192;4.628;2022-08-19T06:49:35;7.35;;;3.50;;
71600;SDS011;59446;52.192;4.628;2022-08-19T06:52:01;8.53;;;3.93;;
71600;SDS011;59446;52.192;4.628;2022-08-19T06:54:28;8.32;;;3.45;;
71600;SDS011;59446;52.192;4.628;2022-08-19T06:56:54;9.30;;;3.63;;
71600;SDS011;59446;52.192;4.628;2022-08-19T06:59:22;9.10;;;3.70;;
71600;SDS011;59446;52.192;4.628;2022-08-19T07:01:52;7.30;;;3.53;;
71600;SDS011;59446;52.192;4.628;2022-08-19T07:04:22;8.90;;;3.60;;
71600;SDS011;59446;52.192;4.628;2022-08-19T07:06:50;9.07;;;3.57;;
71600;SDS011;59446;52.192;4.628;2022-08-19T07:09:26;10.95;;;4.13;;
71600;SDS011;59446;52.192;4.628;2022-08-19T07:11:52;8.68;;;3.78;;
71600;SDS011;59446;52.192;4.628;2022-08-19T07:14:20;8.63;;;3.67;;
71600;SDS011;59446;52.192;4.628;2022-08-19T07:16:50;8.20;;;3.93;;
71600;SDS011;59446;52.192;4.628;2022-08-19T07:19:17;9.35;;;3.28;;
71600;SDS011;59446;52.192;4.628;2022-08-19T07:21:44;11.38;;;4.10;;
71600;SDS011;59446;52.192;4.628;2022-08-19T07:24:12;7.03;;;3.70;;
71600;SDS011;59446;52.192;4.628;2022-08-19T07:26:38;7.13;;;3.22;;
71600;SDS011;59446;52.192;4.628;2022-08-19T07:29:05;6.93;;;3.63;;
71600;SDS011;59446;52.192;4.628;2022-08-19T07:31:31;8.82;;;4.43;;
71600;SDS011;59446;52.192;4.628;2022-08-19T07:34:02;9.07;;;3.97;;
71600;SDS011;59446;52.192;4.628;2022-08-19T07:36:31;8.23;;;3.67;;
71600;SDS011;59446;52.192;4.628;2022-08-19T07:38:59;7.95;;;3.88;;
71600;SDS011;59446;52.192;4.628;2022-08-19T07:41:27;10.75;;;4.13;;
71600;SDS011;59446;52.192;4.628;2022-08-19T07:43:53;9.00;;;4.47;;
71600;SDS011;59446;52.192;4.628;2022-08-19T07:46:19;8.73;;;3.90;;
71600;SDS011;59446;52.192;4.628;2022-08-19T07:48:45;8.88;;;3.80;;
71600;SDS011;59446;52.192;4.628;2022-08-19T07:51:15;7.07;;;3.13;;
71600;SDS011;59446;52.192;4.628;2022-08-19T07:53:43;9.20;;;4.30;;
71600;SDS011;59446;52.192;4.628;2022-08-19T07:56:09;8.85;;;4.13;;
71600;SDS011;59446;52.192;4.628;2022-08-19T07:58:37;10.95;;;4.25;;
71600;SDS011;59446;52.192;4.628;2022-08-19T08:01:05;10.63;;;3.93;;
71600;SDS011;59446;52.192;4.628;2022-08-19T08:03:33;11.10;;;4.55;;
71600;SDS011;59446;52.192;4.628;2022-08-19T08:06:17;7.65;;;3.83;;
71600;SDS011;59446;52.192;4.628;2022-08-19T08:09:02;10.90;;;4.40;;
71600;SDS011;59446;52.192;4.628;2022-08-19T08:11:56;8.75;;;4.25;;
71600;SDS011;59446;52.192;4.628;2022-08-19T08:14:33;8.32;;;3.55;;
71600;SDS011;59446;52.192;4.628;2022-08-19T08:17:01;10.02;;;4.28;;
71600;SDS011;59446;52.192;4.628;2022-08-19T08:19:29;12.67;;;3.70;;
71600;SDS011;59446;52.192;4.628;2022-08-19T08:21:55;8.95;;;3.80;;
71600;SDS011;59446;52.192;4.628;2022-08-19T08:24:22;13.97;;;3.80;;
71600;SDS011;59446;52.192;4.628;2022-08-19T08:26:48;8.40;;;3.53;;
71600;SDS011;59446;52.192;4.628;2022-08-19T08:29:14;7.60;;;2.80;;
71600;SDS011;59446;52.192;4.628;2022-08-19T08:31:40;6.82;;;3.47;;
71600;SDS011;59446;52.192;4.628;2022-08-19T08:34:07;8.18;;;2.72;;
71600;SDS011;59446;52.192;4.628;2022-08-19T08:36:35;7.63;;;3.13;;
71600;SDS011;59446;52.192;4.628;2022-08-19T08:39:07;7.75;;;3.15;;
71600;SDS011;59446;52.192;4.628;2022-08-19T08:42:21;6.95;;;3.33;;
71600;SDS011;59446;52.192;4.628;2022-08-19T08:47:24;8.00;;;2.72;;
71600;SDS011;59446;52.192;4.628;2022-08-19T08:49:57;7.22;;;2.83;;
71600;SDS011;59446;52.192;4.628;2022-08-19T08:52:48;5.80;;;2.70;;
71600;SDS011;59446;52.192;4.628;2022-08-19T08:55:19;6.07;;;2.78;;
71600;SDS011;59446;52.192;4.628;2022-08-19T09:00:32;6.25;;;2.97;;
71600;SDS011;59446;52.192;4.628;2022-08-19T09:03:00;6.03;;;2.37;;
71600;SDS011;59446;52.192;4.628;2022-08-19T09:06:03;6.28;;;2.38;;
71600;SDS011;59446;52.192;4.628;2022-08-19T09:11:34;6.10;;;3.30;;
71600;SDS011;59446;52.192;4.628;2022-08-19T09:17:12;7.60;;;2.83;;
71600;SDS011;59446;52.192;4.628;2022-08-19T09:19:55;6.07;;;2.63;;
71600;SDS011;59446;52.192;4.628;2022-08-19T09:22:35;5.45;;;2.85;;
71600;SDS011;59446;52.192;4.628;2022-08-19T09:25:06;7.40;;;2.70;;
71600;SDS011;59446;52.192;4.628;2022-08-19T09:27:34;8.05;;;2.63;;
71600;SDS011;59446;52.192;4.628;2022-08-19T09:30:03;6.37;;;2.37;;
71600;SDS011;59446;52.192;4.628;2022-08-19T09:32:29;6.55;;;2.85;;
71600;SDS011;59446;52.192;4.628;2022-08-19T09:34:55;4.70;;;2.60;;
71600;SDS011;59446;52.192;4.628;2022-08-19T09:37:23;5.18;;;2.70;;
71600;SDS011;59446;52.192;4.628;2022-08-19T09:39:49;4.93;;;2.38;;
71600;SDS011;59446;52.192;4.628;2022-08-19T09:42:15;5.83;;;2.50;;
71600;SDS011;59446;52.192;4.628;2022-08-19T09:44:40;6.40;;;2.25;;
71600;SDS011;59446;52.192;4.628;2022-08-19T09:47:08;5.67;;;2.47;;
71600;SDS011;59446;52.192;4.628;2022-08-19T09:49:34;5.55;;;2.25;;
71600;SDS011;59446;52.192;4.628;2022-08-19T09:52:00;6.47;;;2.80;;
71600;SDS011;59446;52.192;4.628;2022-08-19T09:54:26;5.67;;;2.40;;
71600;SDS011;59446;52.192;4.628;2022-08-19T09:56:53;6.07;;;2.53;;
71600;SDS011;59446;52.192;4.628;2022-08-19T09:59:18;5.32;;;2.20;;
71600;SDS011;59446;52.192;4.628;2022-08-19T10:01:44;5.87;;;2.23;;
71600;SDS011;59446;52.192;4.628;2022-08-19T10:04:09;6.32;;;2.50;;
71600;SDS011;59446;52.192;4.628;2022-08-19T10:06:35;5.87;;;2.27;;
71600;SDS011;59446;52.192;4.628;2022-08-19T10:09:04;5.33;;;2.10;;
71600;SDS011;59446;52.192;4.628;2022-08-19T10:11:31;5.90;;;2.60;;
71600;SDS011;59446;52.192;4.628;2022-08-19T10:13:57;6.57;;;2.58;;
71600;SDS011;59446;52.192;4.628;2022-08-19T10:16:23;6.83;;;2.10;;
71600;SDS011;59446;52.192;4.628;2022-08-19T10:18:49;5.20;;;2.05;;
71600;SDS011;59446;52.192;4.628;2022-08-19T10:21:16;4.93;;;2.17;;
71600;SDS011;59446;52.192;4.628;2022-08-19T10:23:48;5.40;;;2.07;;
71600;SDS011;59446;52.192;4.628;2022-08-19T10:26:17;7.05;;;2.25;;
71600;SDS011;59446;52.192;4.628;2022-08-19T10:28:45;4.55;;;1.88;;
71600;SDS011;59446;52.192;4.628;2022-08-19T10:31:15;5.03;;;2.13;;
71600;SDS011;59446;52.192;4.628;2022-08-19T10:33:44;5.70;;;2.00;;
71600;SDS011;59446;52.192;4.628;2022-08-19T10:36:15;4.63;;;2.10;;
71600;SDS011;59446;52.192;4.628;2022-08-19T10:38:42;4.97;;;1.60;;
71600;SDS011;59446;52.192;4.628;2022-08-19T10:41:17;8.15;;;1.73;;
71600;SDS011;59446;52.192;4.628;2022-08-19T10:43:47;6.37;;;1.90;;
71600;SDS011;59446;52.192;4.628;2022-08-19T10:46:15;6.38;;;2.08;;
71600;SDS011;59446;52.192;4.628;2022-08-19T10:48:41;7.40;;;1.57;;
71600;SDS011;59446;52.192;4.628;2022-08-19T10:51:07;4.70;;;2.20;;
71600;SDS011;59446;52.192;4.628;2022-08-19T10:53:52;4.15;;;1.88;;
71600;SDS011;59446;52.192;4.628;2022-08-19T10:56:18;5.83;;;1.97;;
71600;SDS011;59446;52.192;4.628;2022-08-19T10:59:01;4.47;;;1.75;;
71600;SDS011;59446;52.192;4.628;2022-08-19T11:01:28;4.60;;;1.70;;
71600;SDS011;59446;52.192;4.628;2022-08-19T11:03:55;4.13;;;1.85;;
71600;SDS011;59446;52.192;4.628;2022-08-19T11:06:22;3.40;;;1.70;;
71600;SDS011;59446;52.192;4.628;2022-08-19T11:08:50;4.00;;;1.70;;
71600;SDS011;59446;52.192;4.628;2022-08-19T11:11:16;3.37;;;1.67;;
71600;SDS011;59446;52.192;4.628;2022-08-19T11:13:42;6.90;;;2.00;;
71600;SDS011;59446;52.192;4.628;2022-08-19T11:16:13;3.97;;;1.58;;
71600;SDS011;59446;52.192;4.628;2022-08-19T11:18:43;3.77;;;1.93;;
71600;SDS011;59446;52.192;4.628;2022-08-19T11:21:15;3.58;;;1.73;;
71600;SDS011;59446;52.192;4.628;2022-08-19T11:23:43;6.75;;;1.77;;
71600;SDS011;59446;52.192;4.628;2022-08-19T11:26:10;3.83;;;1.60;;
71600;SDS011;59446;52.192;4.628;2022-08-19T11:28:36;3.33;;;1.52;;
71600;SDS011;59446;52.192;4.628;2022-08-19T11:31:02;2.57;;;1.33;;
71600;SDS011;59446;52.192;4.628;2022-08-19T11:33:29;5.80;;;1.65;;
71600;SDS011;59446;52.192;4.628;2022-08-19T11:35:57;5.75;;;1.60;;
71600;SDS011;59446;52.192;4.628;2022-08-19T11:38:24;4.65;;;1.48;;
71600;SDS011;59446;52.192;4.628;2022-08-19T11:40:57;4.10;;;1.83;;
71600;SDS011;59446;52.192;4.628;2022-08-19T11:43:25;2.28;;;1.33;;
71600;SDS011;59446;52.192;4.628;2022-08-19T11:45:52;4.13;;;1.40;;
71600;SDS011;59446;52.192;4.628;2022-08-19T11:48:20;3.97;;;1.30;;
71600;SDS011;59446;52.192;4.628;2022-08-19T11:50:50;3.35;;;1.30;;
71600;SDS011;59446;52.192;4.628;2022-08-19T11:53:17;3.47;;;1.38;;
71600;SDS011;59446;52.192;4.628;2022-08-19T11:55:45;3.97;;;1.20;;
71600;SDS011;59446;52.192;4.628;2022-08-19T11:58:11;2.78;;;1.30;;
71600;SDS011;59446;52.192;4.628;2022-08-19T12:00:38;3.75;;;1.48;;
71600;SDS011;59446;52.192;4.628;2022-08-19T12:03:04;3.10;;;1.30;;
71600;SDS011;59446;52.192;4.628;2022-08-19T12:05:30;2.33;;;1.23;;
71600;SDS011;59446;52.192;4.628;2022-08-19T12:07:55;3.03;;;1.30;;
71600;SDS011;59446;52.192;4.628;2022-08-19T12:10:21;3.83;;;1.17;;
71600;SDS011;59446;52.192;4.628;2022-08-19T12:12:47;2.73;;;1.30;;
71600;SDS011;59446;52.192;4.628;2022-08-19T12:15:12;3.90;;;1.43;;
71600;SDS011;59446;52.192;4.628;2022-08-19T12:17:39;4.73;;;1.27;;
71600;SDS011;59446;52.192;4.628;2022-08-19T12:20:05;4.18;;;1.23;;
71600;SDS011;59446;52.192;4.628;2022-08-19T12:22:32;2.22;;;1.17;;
71600;SDS011;59446;52.192;4.628;2022-08-19T12:24:57;2.80;;;1.37;;
71600;SDS011;59446;52.192;4.628;2022-08-19T12:27:23;3.17;;;1.30;;
71600;SDS011;59446;52.192;4.628;2022-08-19T12:29:48;2.03;;;1.10;;
71600;SDS011;59446;52.192;4.628;2022-08-19T12:32:14;2.00;;;1.13;;
71600;SDS011;59446;52.192;4.628;2022-08-19T12:34:40;3.22;;;1.27;;
71600;SDS011;59446;52.192;4.628;2022-08-19T12:37:06;3.23;;;1.40;;
71600;SDS011;59446;52.192;4.628;2022-08-19T12:39:35;2.65;;;1.20;;
71600;SDS011;59446;52.192;4.628;2022-08-19T12:42:03;2.47;;;1.10;;
71600;SDS011;59446;52.192;4.628;2022-08-19T12:44:29;2.43;;;1.20;;
71600;SDS011;59446;52.192;4.628;2022-08-19T12:46:56;3.00;;;1.23;;
71600;SDS011;59446;52.192;4.628;2022-08-19T12:49:22;2.30;;;1.10;;
71600;SDS011;59446;52.192;4.628;2022-08-19T12:51:47;1.53;;;1.03;;
71600;SDS011;59446;52.192;4.628;2022-08-19T12:54:13;2.10;;;1.10;;
71600;SDS011;59446;52.192;4.628;2022-08-19T12:56:39;2.10;;;1.02;;
71600;SDS011;59446;52.192;4.628;2022-08-19T12:59:07;2.15;;;1.10;;
71600;SDS011;59446;52.192;4.628;2022-08-19T13:01:33;2.97;;;1.10;;
71600;SDS011;59446;52.192;4.628;2022-08-19T13:03:59;2.88;;;1.10;;
71600;SDS011;59446;52.192;4.628;2022-08-19T13:06:25;3.47;;;1.13;;
71600;SDS011;59446;52.192;4.628;2022-08-19T13:08:50;2.67;;;1.10;;
71600;SDS011;59446;52.192;4.628;2022-08-19T13:11:17;2.83;;;1.25;;
71600;SDS011;59446;52.192;4.628;2022-08-19T13:13:46;3.67;;;1.20;;
71600;SDS011;59446;52.192;4.628;2022-08-19T13:16:13;4.20;;;1.10;;
71600;SDS011;59446;52.192;4.628;2022-08-19T13:18:39;3.60;;;1.20;;
71600;SDS011;59446;52.192;4.628;2022-08-19T13:21:07;2.77;;;1.00;;
71600;SDS011;59446;52.192;4.628;2022-08-19T13:23:36;3.63;;;1.23;;
71600;SDS011;59446;52.192;4.628;2022-08-19T13:26:03;2.80;;;1.30;;
71600;SDS011;59446;52.192;4.628;2022-08-19T13:28:30;1.50;;;1.00;;
71600;SDS011;59446;52.192;4.628;2022-08-19T13:31:16;3.53;;;1.60;;
71600;SDS011;59446;52.192;4.628;2022-08-19T13:34:02;2.95;;;1.80;;
71600;SDS011;59446;52.192;4.628;2022-08-19T13:36:28;2.53;;;1.20;;
71600;SDS011;59446;52.192;4.628;2022-08-19T13:38:54;2.63;;;1.60;;
71600;SDS011;59446;52.192;4.628;2022-08-19T13:41:19;3.80;;;1.40;;
71600;SDS011;59446;52.192;4.628;2022-08-19T13:43:44;2.07;;;1.30;;
71600;SDS011;59446;52.192;4.628;2022-08-19T13:46:11;4.07;;;1.35;;
71600;SDS011;59446;52.192;4.628;2022-08-19T13:48:39;2.25;;;1.30;;
71600;SDS011;59446;52.192;4.628;2022-08-19T13:51:05;2.13;;;1.17;;
71600;SDS011;59446;52.192;4.628;2022-08-19T13:53:34;4.37;;;1.30;;
71600;SDS011;59446;52.192;4.628;2022-08-19T13:56:04;2.35;;;1.25;;
71600;SDS011;59446;52.192;4.628;2022-08-19T13:58:31;3.20;;;1.35;;
71600;SDS011;59446;52.192;4.628;2022-08-19T14:00:56;2.40;;;1.40;;
71600;SDS011;59446;52.192;4.628;2022-08-19T14:03:22;2.22;;;1.23;;
71600;SDS011;59446;52.192;4.628;2022-08-19T14:05:48;3.30;;;1.40;;
71600;SDS011;59446;52.192;4.628;2022-08-19T14:08:14;3.78;;;1.27;;
71600;SDS011;59446;52.192;4.628;2022-08-19T14:10:40;3.17;;;1.27;;
71600;SDS011;59446;52.192;4.628;2022-08-19T14:13:07;3.15;;;1.40;;
71600;SDS011;59446;52.192;4.628;2022-08-19T14:15:33;3.25;;;1.40;;
71600;SDS011;59446;52.192;4.628;2022-08-19T14:17:59;2.30;;;1.30;;
71600;SDS011;59446;52.192;4.628;2022-08-19T14:20:24;6.45;;;1.95;;
71600;SDS011;59446;52.192;4.628;2022-08-19T14:22:50;4.10;;;1.50;;
71600;SDS011;59446;52.192;4.628;2022-08-19T14:25:20;2.30;;;1.27;;
71600;SDS011;59446;52.192;4.628;2022-08-19T14:27:48;4.00;;;1.23;;
71600;SDS011;59446;52.192;4.628;2022-08-19T14:30:16;2.75;;;1.40;;
71600;SDS011;59446;52.192;4.628;2022-08-19T14:32:46;2.35;;;1.25;;
71600;SDS011;59446;52.192;4.628;2022-08-19T14:35:12;3.70;;;1.20;;
71600;SDS011;59446;52.192;4.628;2022-08-19T14:37:39;5.20;;;1.58;;
71600;SDS011;59446;52.192;4.628;2022-08-19T14:40:05;2.33;;;1.17;;
71600;SDS011;59446;52.192;4.628;2022-08-19T14:42:31;3.42;;;1.23;;
71600;SDS011;59446;52.192;4.628;2022-08-19T14:44:58;2.83;;;1.25;;
71600;SDS011;59446;52.192;4.628;2022-08-19T14:47:24;1.93;;;1.10;;
71600;SDS011;59446;52.192;4.628;2022-08-19T14:49:51;2.95;;;1.20;;
71600;SDS011;59446;52.192;4.628;2022-08-19T14:52:17;3.45;;;1.42;;
71600;SDS011;59446;52.192;4.628;2022-08-19T14:54:43;3.87;;;1.40;;
71600;SDS011;59446;52.192;4.628;2022-08-19T14:57:11;2.50;;;1.30;;
71600;SDS011;59446;52.192;4.628;2022-08-19T14:59:37;2.30;;;1.25;;
71600;SDS011;59446;52.192;4.628;2022-08-19T15:02:03;3.83;;;1.35;;
71600;SDS011;59446;52.192;4.628;2022-08-19T15:04:29;3.77;;;1.47;;